sensor_id;sensor_type;location;lat;lon;timestamp;P1;durP1;ratioP1;P2;durP2;ratioP2
65853;SDS011;52627;48.838;2.402;2023-04-21T00:00:54;16.10;;;11.30;;
65853;SDS011;52627;48.838;2.402;2023-04-21T00:03:22;15.70;;;11.40;;
65853;SDS011;52627;48.838;2.402;2023-04-21T00:05:50;15.90;;;11.50;;
65853;SDS011;52627;48.838;2.402;2023-04-21T00:08:17;18.60;;;11.70;;
65853;SDS011;52627;48.838;2.402;2023-04-21T00:10:45;19.50;;;13.40;;
65853;SDS011;52627;48.838;2.402;2023-04-21T00:13:14;18.20;;;12.50;;
65853;SDS011;52627;48.838;2.402;2023-04-21T00:15:41;17.00;;;12.50;;
65853;SDS011;52627;48.838;2.402;2023-04-21T00:18:08;17.70;;;12.60;;
65853;SDS011;52627;48.838;2.402;2023-04-21T00:20:35;17.50;;;12.00;;
65853;SDS011;52627;48.838;2.402;2023-04-21T00:23:02;18.70;;;11.70;;
65853;SDS011;52627;48.838;2.402;2023-04-21T00:25:29;17.40;;;12.00;;
65853;SDS011;52627;48.838;2.402;2023-04-21T00:27:56;15.50;;;11.10;;
65853;SDS011;52627;48.838;2.402;2023-04-21T00:30:22;17.60;;;11.90;;
65853;SDS011;52627;48.838;2.402;2023-04-21T00:32:49;16.90;;;11.80;;
65853;SDS011;52627;48.838;2.402;2023-04-21T00:35:16;18.00;;;12.20;;
65853;SDS011;52627;48.838;2.402;2023-04-21T00:37:43;17.00;;;12.50;;
65853;SDS011;52627;48.838;2.402;2023-04-21T00:40:10;17.40;;;11.90;;
65853;SDS011;52627;48.838;2.402;2023-04-21T00:42:38;18.20;;;11.70;;
65853;SDS011;52627;48.838;2.402;2023-04-21T00:45:06;16.20;;;11.20;;
65853;SDS011;52627;48.838;2.402;2023-04-21T00:47:33;16.70;;;11.50;;
65853;SDS011;52627;48.838;2.402;2023-04-21T00:50:01;15.60;;;10.70;;
65853;SDS011;52627;48.838;2.402;2023-04-21T00:52:29;18.10;;;12.20;;
65853;SDS011;52627;48.838;2.402;2023-04-21T00:54:57;16.20;;;11.80;;
65853;SDS011;52627;48.838;2.402;2023-04-21T00:57:26;17.10;;;12.50;;
65853;SDS011;52627;48.838;2.402;2023-04-21T00:59:54;18.10;;;12.10;;
65853;SDS011;52627;48.838;2.402;2023-04-21T01:02:21;16.60;;;11.90;;
65853;SDS011;52627;48.838;2.402;2023-04-21T01:04:48;15.40;;;11.10;;
65853;SDS011;52627;48.838;2.402;2023-04-21T01:07:15;17.40;;;11.50;;
65853;SDS011;52627;48.838;2.402;2023-04-21T01:09:42;17.00;;;12.10;;
65853;SDS011;52627;48.838;2.402;2023-04-21T01:12:10;17.50;;;12.50;;
65853;SDS011;52627;48.838;2.402;2023-04-21T01:14:39;18.10;;;12.40;;
65853;SDS011;52627;48.838;2.402;2023-04-21T01:17:07;19.70;;;13.00;;
65853;SDS011;52627;48.838;2.402;2023-04-21T01:19:38;16.60;;;12.00;;
65853;SDS011;52627;48.838;2.402;2023-04-21T01:22:11;17.30;;;12.40;;
65853;SDS011;52627;48.838;2.402;2023-04-21T01:24:40;16.60;;;12.00;;
65853;SDS011;52627;48.838;2.402;2023-04-21T01:27:19;18.50;;;13.60;;
65853;SDS011;52627;48.838;2.402;2023-04-21T01:29:50;17.40;;;12.60;;
65853;SDS011;52627;48.838;2.402;2023-04-21T01:32:21;18.20;;;12.20;;
65853;SDS011;52627;48.838;2.402;2023-04-21T01:34:50;17.90;;;12.80;;
65853;SDS011;52627;48.838;2.402;2023-04-21T01:37:21;16.90;;;11.50;;
65853;SDS011;52627;48.838;2.402;2023-04-21T01:39:52;17.70;;;12.10;;
65853;SDS011;52627;48.838;2.402;2023-04-21T01:42:22;17.90;;;13.50;;
65853;SDS011;52627;48.838;2.402;2023-04-21T01:44:51;18.30;;;12.60;;
65853;SDS011;52627;48.838;2.402;2023-04-21T01:47:19;18.90;;;12.80;;
65853;SDS011;52627;48.838;2.402;2023-04-21T01:49:46;16.90;;;12.30;;
65853;SDS011;52627;48.838;2.402;2023-04-21T01:52:13;18.00;;;12.20;;
65853;SDS011;52627;48.838;2.402;2023-04-21T01:54:40;17.10;;;12.50;;
65853;SDS011;52627;48.838;2.402;2023-04-21T01:57:07;18.10;;;12.40;;
65853;SDS011;52627;48.838;2.402;2023-04-21T01:59:34;15.60;;;11.20;;
65853;SDS011;52627;48.838;2.402;2023-04-21T02:02:02;17.90;;;11.80;;
65853;SDS011;52627;48.838;2.402;2023-04-21T02:04:29;14.80;;;11.00;;
65853;SDS011;52627;48.838;2.402;2023-04-21T02:06:56;15.60;;;10.70;;
65853;SDS011;52627;48.838;2.402;2023-04-21T02:09:22;15.60;;;10.80;;
65853;SDS011;52627;48.838;2.402;2023-04-21T02:11:49;15.60;;;11.10;;
65853;SDS011;52627;48.838;2.402;2023-04-21T02:14:16;16.30;;;10.90;;
65853;SDS011;52627;48.838;2.402;2023-04-21T02:16:43;15.50;;;10.90;;
65853;SDS011;52627;48.838;2.402;2023-04-21T02:19:10;16.20;;;10.70;;
65853;SDS011;52627;48.838;2.402;2023-04-21T02:21:36;13.90;;;10.60;;
65853;SDS011;52627;48.838;2.402;2023-04-21T02:24:03;16.60;;;11.30;;
65853;SDS011;52627;48.838;2.402;2023-04-21T02:26:30;15.80;;;10.70;;
65853;SDS011;52627;48.838;2.402;2023-04-21T02:28:58;14.50;;;10.50;;
65853;SDS011;52627;48.838;2.402;2023-04-21T02:31:25;14.20;;;10.60;;
65853;SDS011;52627;48.838;2.402;2023-04-21T02:33:52;15.80;;;10.90;;
65853;SDS011;52627;48.838;2.402;2023-04-21T02:36:20;13.20;;;9.50;;
65853;SDS011;52627;48.838;2.402;2023-04-21T02:38:47;14.30;;;10.10;;
65853;SDS011;52627;48.838;2.402;2023-04-21T02:41:14;13.80;;;10.30;;
65853;SDS011;52627;48.838;2.402;2023-04-21T02:43:40;13.20;;;9.50;;
65853;SDS011;52627;48.838;2.402;2023-04-21T02:46:07;13.90;;;9.60;;
65853;SDS011;52627;48.838;2.402;2023-04-21T02:48:35;14.80;;;9.30;;
65853;SDS011;52627;48.838;2.402;2023-04-21T02:51:02;15.00;;;10.30;;
65853;SDS011;52627;48.838;2.402;2023-04-21T02:53:30;14.00;;;10.00;;
65853;SDS011;52627;48.838;2.402;2023-04-21T02:55:57;13.00;;;9.50;;
65853;SDS011;52627;48.838;2.402;2023-04-21T02:58:24;14.50;;;11.00;;
65853;SDS011;52627;48.838;2.402;2023-04-21T03:00:50;15.90;;;11.20;;
65853;SDS011;52627;48.838;2.402;2023-04-21T03:03:17;16.40;;;11.10;;
65853;SDS011;52627;48.838;2.402;2023-04-21T03:05:45;15.90;;;10.60;;
65853;SDS011;52627;48.838;2.402;2023-04-21T03:08:11;14.80;;;11.00;;
65853;SDS011;52627;48.838;2.402;2023-04-21T03:10:38;16.10;;;11.80;;
65853;SDS011;52627;48.838;2.402;2023-04-21T03:13:05;17.40;;;11.70;;
65853;SDS011;52627;48.838;2.402;2023-04-21T03:15:32;17.90;;;12.50;;
65853;SDS011;52627;48.838;2.402;2023-04-21T03:17:59;16.80;;;12.10;;
65853;SDS011;52627;48.838;2.402;2023-04-21T03:20:26;16.80;;;12.10;;
65853;SDS011;52627;48.838;2.402;2023-04-21T03:22:53;17.00;;;12.00;;
65853;SDS011;52627;48.838;2.402;2023-04-21T03:25:19;15.20;;;11.70;;
65853;SDS011;52627;48.838;2.402;2023-04-21T03:27:47;16.40;;;12.30;;
65853;SDS011;52627;48.838;2.402;2023-04-21T03:30:13;19.10;;;13.30;;
65853;SDS011;52627;48.838;2.402;2023-04-21T03:32:40;19.20;;;14.10;;
65853;SDS011;52627;48.838;2.402;2023-04-21T03:35:07;17.60;;;12.50;;
65853;SDS011;52627;48.838;2.402;2023-04-21T03:37:34;18.00;;;13.10;;
65853;SDS011;52627;48.838;2.402;2023-04-21T03:40:01;17.00;;;11.90;;
65853;SDS011;52627;48.838;2.402;2023-04-21T03:42:27;18.00;;;13.30;;
65853;SDS011;52627;48.838;2.402;2023-04-21T03:44:55;17.30;;;12.40;;
65853;SDS011;52627;48.838;2.402;2023-04-21T03:47:22;18.60;;;13.40;;
65853;SDS011;52627;48.838;2.402;2023-04-21T03:49:48;17.50;;;12.70;;
65853;SDS011;52627;48.838;2.402;2023-04-21T03:52:15;18.40;;;12.80;;
65853;SDS011;52627;48.838;2.402;2023-04-21T03:54:42;17.10;;;12.30;;
65853;SDS011;52627;48.838;2.402;2023-04-21T03:57:09;19.50;;;13.40;;
65853;SDS011;52627;48.838;2.402;2023-04-21T03:59:35;16.60;;;12.20;;
65853;SDS011;52627;48.838;2.402;2023-04-21T04:02:02;17.70;;;11.90;;
65853;SDS011;52627;48.838;2.402;2023-04-21T04:04:29;16.10;;;11.90;;
65853;SDS011;52627;48.838;2.402;2023-04-21T04:06:57;18.10;;;11.80;;
65853;SDS011;52627;48.838;2.402;2023-04-21T04:09:24;17.20;;;12.20;;
65853;SDS011;52627;48.838;2.402;2023-04-21T04:11:50;17.70;;;12.50;;
65853;SDS011;52627;48.838;2.402;2023-04-21T04:14:17;16.90;;;11.50;;
65853;SDS011;52627;48.838;2.402;2023-04-21T04:16:44;19.20;;;12.70;;
65853;SDS011;52627;48.838;2.402;2023-04-21T04:19:11;18.10;;;12.30;;
65853;SDS011;52627;48.838;2.402;2023-04-21T04:21:38;16.30;;;11.80;;
65853;SDS011;52627;48.838;2.402;2023-04-21T04:24:05;19.60;;;12.90;;
65853;SDS011;52627;48.838;2.402;2023-04-21T04:26:34;17.70;;;12.40;;
65853;SDS011;52627;48.838;2.402;2023-04-21T04:29:03;18.60;;;12.90;;
65853;SDS011;52627;48.838;2.402;2023-04-21T04:31:31;19.40;;;12.90;;
65853;SDS011;52627;48.838;2.402;2023-04-21T04:33:58;20.40;;;12.80;;
65853;SDS011;52627;48.838;2.402;2023-04-21T04:36:25;18.30;;;13.00;;
65853;SDS011;52627;48.838;2.402;2023-04-21T04:38:53;18.40;;;12.60;;
65853;SDS011;52627;48.838;2.402;2023-04-21T04:41:21;19.00;;;13.70;;
65853;SDS011;52627;48.838;2.402;2023-04-21T04:43:49;21.00;;;13.20;;
65853;SDS011;52627;48.838;2.402;2023-04-21T04:46:16;17.50;;;12.30;;
65853;SDS011;52627;48.838;2.402;2023-04-21T04:48:46;18.50;;;12.40;;
65853;SDS011;52627;48.838;2.402;2023-04-21T04:51:12;19.90;;;13.70;;
65853;SDS011;52627;48.838;2.402;2023-04-21T04:53:39;18.40;;;13.20;;
65853;SDS011;52627;48.838;2.402;2023-04-21T04:56:06;20.50;;;13.80;;
65853;SDS011;52627;48.838;2.402;2023-04-21T04:58:33;20.60;;;13.90;;
65853;SDS011;52627;48.838;2.402;2023-04-21T05:01:12;18.20;;;13.00;;
65853;SDS011;52627;48.838;2.402;2023-04-21T05:03:40;22.20;;;14.70;;
65853;SDS011;52627;48.838;2.402;2023-04-21T05:06:07;20.00;;;14.00;;
65853;SDS011;52627;48.838;2.402;2023-04-21T05:08:34;23.10;;;14.50;;
65853;SDS011;52627;48.838;2.402;2023-04-21T05:11:01;20.90;;;13.30;;
65853;SDS011;52627;48.838;2.402;2023-04-21T05:13:28;21.10;;;13.90;;
65853;SDS011;52627;48.838;2.402;2023-04-21T05:15:59;19.70;;;13.30;;
65853;SDS011;52627;48.838;2.402;2023-04-21T05:18:29;20.90;;;13.40;;
65853;SDS011;52627;48.838;2.402;2023-04-21T05:20:55;19.60;;;13.50;;
65853;SDS011;52627;48.838;2.402;2023-04-21T05:23:22;20.80;;;13.50;;
65853;SDS011;52627;48.838;2.402;2023-04-21T05:25:49;21.60;;;13.80;;
65853;SDS011;52627;48.838;2.402;2023-04-21T05:28:16;22.70;;;15.00;;
65853;SDS011;52627;48.838;2.402;2023-04-21T05:30:43;21.40;;;15.50;;
65853;SDS011;52627;48.838;2.402;2023-04-21T05:33:09;22.60;;;15.20;;
65853;SDS011;52627;48.838;2.402;2023-04-21T05:35:36;23.90;;;16.60;;
65853;SDS011;52627;48.838;2.402;2023-04-21T05:38:04;22.10;;;15.20;;
65853;SDS011;52627;48.838;2.402;2023-04-21T05:40:31;22.60;;;15.80;;
65853;SDS011;52627;48.838;2.402;2023-04-21T05:42:58;22.40;;;15.70;;
65853;SDS011;52627;48.838;2.402;2023-04-21T05:45:25;25.00;;;16.30;;
65853;SDS011;52627;48.838;2.402;2023-04-21T05:47:51;24.10;;;15.10;;
65853;SDS011;52627;48.838;2.402;2023-04-21T05:50:18;26.50;;;17.30;;
65853;SDS011;52627;48.838;2.402;2023-04-21T05:52:45;23.40;;;16.30;;
65853;SDS011;52627;48.838;2.402;2023-04-21T05:55:12;22.80;;;15.90;;
65853;SDS011;52627;48.838;2.402;2023-04-21T05:57:39;23.40;;;15.60;;
65853;SDS011;52627;48.838;2.402;2023-04-21T06:00:06;22.90;;;16.00;;
65853;SDS011;52627;48.838;2.402;2023-04-21T06:02:34;22.30;;;15.90;;
65853;SDS011;52627;48.838;2.402;2023-04-21T06:05:01;22.70;;;15.80;;
65853;SDS011;52627;48.838;2.402;2023-04-21T06:07:28;20.80;;;14.40;;
65853;SDS011;52627;48.838;2.402;2023-04-21T06:09:55;24.70;;;15.60;;
65853;SDS011;52627;48.838;2.402;2023-04-21T06:12:23;23.70;;;15.80;;
65853;SDS011;52627;48.838;2.402;2023-04-21T06:14:50;20.20;;;14.60;;
65853;SDS011;52627;48.838;2.402;2023-04-21T06:17:16;22.20;;;15.30;;
65853;SDS011;52627;48.838;2.402;2023-04-21T06:19:44;23.30;;;15.40;;
65853;SDS011;52627;48.838;2.402;2023-04-21T06:22:11;21.30;;;14.80;;
65853;SDS011;52627;48.838;2.402;2023-04-21T06:24:37;23.00;;;15.90;;
65853;SDS011;52627;48.838;2.402;2023-04-21T06:27:09;21.90;;;15.10;;
65853;SDS011;52627;48.838;2.402;2023-04-21T06:29:38;22.50;;;16.00;;
65853;SDS011;52627;48.838;2.402;2023-04-21T06:32:05;21.40;;;14.90;;
65853;SDS011;52627;48.838;2.402;2023-04-21T06:34:31;24.70;;;15.60;;
65853;SDS011;52627;48.838;2.402;2023-04-21T06:36:58;23.00;;;16.10;;
65853;SDS011;52627;48.838;2.402;2023-04-21T06:39:25;21.60;;;15.20;;
65853;SDS011;52627;48.838;2.402;2023-04-21T06:41:52;21.10;;;14.90;;
65853;SDS011;52627;48.838;2.402;2023-04-21T06:44:19;25.80;;;17.20;;
65853;SDS011;52627;48.838;2.402;2023-04-21T06:46:46;21.30;;;15.70;;
65853;SDS011;52627;48.838;2.402;2023-04-21T06:49:13;20.90;;;14.40;;
65853;SDS011;52627;48.838;2.402;2023-04-21T06:51:40;22.00;;;15.70;;
65853;SDS011;52627;48.838;2.402;2023-04-21T06:54:06;21.10;;;15.30;;
65853;SDS011;52627;48.838;2.402;2023-04-21T06:56:33;20.50;;;14.80;;
65853;SDS011;52627;48.838;2.402;2023-04-21T06:59:00;18.00;;;13.20;;
65853;SDS011;52627;48.838;2.402;2023-04-21T07:01:27;19.00;;;14.00;;
65853;SDS011;52627;48.838;2.402;2023-04-21T07:03:53;20.20;;;14.10;;
65853;SDS011;52627;48.838;2.402;2023-04-21T07:06:20;21.30;;;13.70;;
65853;SDS011;52627;48.838;2.402;2023-04-21T07:08:47;19.00;;;13.60;;
65853;SDS011;52627;48.838;2.402;2023-04-21T07:11:14;21.10;;;14.70;;
65853;SDS011;52627;48.838;2.402;2023-04-21T07:13:41;18.30;;;13.10;;
65853;SDS011;52627;48.838;2.402;2023-04-21T07:16:07;18.60;;;13.70;;
65853;SDS011;52627;48.838;2.402;2023-04-21T07:18:34;17.70;;;12.90;;
65853;SDS011;52627;48.838;2.402;2023-04-21T07:21:01;15.70;;;11.90;;
65853;SDS011;52627;48.838;2.402;2023-04-21T07:23:28;16.90;;;12.10;;
65853;SDS011;52627;48.838;2.402;2023-04-21T07:25:55;14.20;;;11.20;;
65853;SDS011;52627;48.838;2.402;2023-04-21T07:28:21;16.30;;;12.10;;
65853;SDS011;52627;48.838;2.402;2023-04-21T07:30:48;14.90;;;11.20;;
65853;SDS011;52627;48.838;2.402;2023-04-21T07:33:15;16.60;;;11.90;;
65853;SDS011;52627;48.838;2.402;2023-04-21T07:35:42;17.40;;;11.90;;
65853;SDS011;52627;48.838;2.402;2023-04-21T07:38:09;15.50;;;10.80;;
65853;SDS011;52627;48.838;2.402;2023-04-21T07:40:36;14.80;;;10.10;;
65853;SDS011;52627;48.838;2.402;2023-04-21T07:43:02;13.30;;;9.70;;
65853;SDS011;52627;48.838;2.402;2023-04-21T07:45:29;11.90;;;8.70;;
65853;SDS011;52627;48.838;2.402;2023-04-21T07:47:56;11.30;;;8.20;;
65853;SDS011;52627;48.838;2.402;2023-04-21T07:50:24;8.70;;;6.20;;
65853;SDS011;52627;48.838;2.402;2023-04-21T07:52:52;11.30;;;7.60;;
65853;SDS011;52627;48.838;2.402;2023-04-21T07:55:19;10.30;;;7.70;;
65853;SDS011;52627;48.838;2.402;2023-04-21T07:57:46;10.70;;;7.80;;
65853;SDS011;52627;48.838;2.402;2023-04-21T08:00:13;9.60;;;7.50;;
65853;SDS011;52627;48.838;2.402;2023-04-21T08:02:41;11.00;;;7.10;;
65853;SDS011;52627;48.838;2.402;2023-04-21T08:05:08;10.10;;;7.90;;
65853;SDS011;52627;48.838;2.402;2023-04-21T08:07:36;9.10;;;7.30;;
65853;SDS011;52627;48.838;2.402;2023-04-21T08:10:03;11.00;;;8.10;;
65853;SDS011;52627;48.838;2.402;2023-04-21T08:12:31;11.10;;;8.10;;
65853;SDS011;52627;48.838;2.402;2023-04-21T08:14:58;11.70;;;9.00;;
65853;SDS011;52627;48.838;2.402;2023-04-21T08:17:25;13.90;;;8.90;;
65853;SDS011;52627;48.838;2.402;2023-04-21T08:19:51;15.50;;;8.70;;
65853;SDS011;52627;48.838;2.402;2023-04-21T08:22:18;10.90;;;8.80;;
65853;SDS011;52627;48.838;2.402;2023-04-21T08:24:45;12.70;;;8.60;;
65853;SDS011;52627;48.838;2.402;2023-04-21T08:27:12;11.10;;;8.60;;
65853;SDS011;52627;48.838;2.402;2023-04-21T08:29:39;10.00;;;8.00;;
65853;SDS011;52627;48.838;2.402;2023-04-21T08:32:06;10.20;;;7.50;;
65853;SDS011;52627;48.838;2.402;2023-04-21T08:34:33;12.10;;;8.30;;
65853;SDS011;52627;48.838;2.402;2023-04-21T08:37:00;9.70;;;7.40;;
65853;SDS011;52627;48.838;2.402;2023-04-21T08:39:27;12.20;;;7.70;;
65853;SDS011;52627;48.838;2.402;2023-04-21T08:41:55;12.60;;;9.10;;
65853;SDS011;52627;48.838;2.402;2023-04-21T08:44:23;11.50;;;8.70;;
65853;SDS011;52627;48.838;2.402;2023-04-21T08:46:50;11.70;;;8.90;;
65853;SDS011;52627;48.838;2.402;2023-04-21T08:49:19;10.10;;;8.10;;
65853;SDS011;52627;48.838;2.402;2023-04-21T08:51:47;10.80;;;8.10;;
65853;SDS011;52627;48.838;2.402;2023-04-21T08:54:14;11.10;;;8.40;;
65853;SDS011;52627;48.838;2.402;2023-04-21T08:56:41;10.60;;;8.60;;
65853;SDS011;52627;48.838;2.402;2023-04-21T08:59:08;11.80;;;8.30;;
65853;SDS011;52627;48.838;2.402;2023-04-21T09:04:46;13.80;;;8.60;;
65853;SDS011;52627;48.838;2.402;2023-04-21T09:07:35;9.40;;;7.80;;
65853;SDS011;52627;48.838;2.402;2023-04-21T09:10:05;12.60;;;8.40;;
65853;SDS011;52627;48.838;2.402;2023-04-21T09:12:32;13.90;;;9.30;;
65853;SDS011;52627;48.838;2.402;2023-04-21T09:15:03;12.40;;;9.20;;
65853;SDS011;52627;48.838;2.402;2023-04-21T09:17:31;12.80;;;9.10;;
65853;SDS011;52627;48.838;2.402;2023-04-21T09:20:12;11.40;;;8.00;;
65853;SDS011;52627;48.838;2.402;2023-04-21T09:22:40;10.20;;;7.80;;
65853;SDS011;52627;48.838;2.402;2023-04-21T09:25:08;11.30;;;8.00;;
65853;SDS011;52627;48.838;2.402;2023-04-21T09:27:35;10.80;;;8.00;;
65853;SDS011;52627;48.838;2.402;2023-04-21T09:30:04;10.80;;;8.20;;
65853;SDS011;52627;48.838;2.402;2023-04-21T09:32:37;10.10;;;8.10;;
65853;SDS011;52627;48.838;2.402;2023-04-21T09:35:14;9.60;;;7.20;;
65853;SDS011;52627;48.838;2.402;2023-04-21T09:37:42;9.80;;;7.30;;
65853;SDS011;52627;48.838;2.402;2023-04-21T09:40:13;10.40;;;7.80;;
65853;SDS011;52627;48.838;2.402;2023-04-21T09:42:43;13.60;;;7.90;;
65853;SDS011;52627;48.838;2.402;2023-04-21T09:45:11;11.40;;;8.10;;
65853;SDS011;52627;48.838;2.402;2023-04-21T09:48:00;11.60;;;8.20;;
65853;SDS011;52627;48.838;2.402;2023-04-21T09:50:28;10.40;;;7.30;;
65853;SDS011;52627;48.838;2.402;2023-04-21T09:53:03;10.40;;;7.60;;
65853;SDS011;52627;48.838;2.402;2023-04-21T09:55:33;11.80;;;7.80;;
65853;SDS011;52627;48.838;2.402;2023-04-21T09:58:01;9.20;;;7.40;;
65853;SDS011;52627;48.838;2.402;2023-04-21T10:00:28;10.50;;;7.50;;
65853;SDS011;52627;48.838;2.402;2023-04-21T10:02:57;9.40;;;7.40;;
65853;SDS011;52627;48.838;2.402;2023-04-21T10:05:27;9.90;;;7.40;;
65853;SDS011;52627;48.838;2.402;2023-04-21T10:07:54;10.80;;;7.40;;
65853;SDS011;52627;48.838;2.402;2023-04-21T10:10:28;11.80;;;7.50;;
65853;SDS011;52627;48.838;2.402;2023-04-21T10:12:57;10.40;;;7.40;;
65853;SDS011;52627;48.838;2.402;2023-04-21T10:15:36;11.80;;;7.60;;
65853;SDS011;52627;48.838;2.402;2023-04-21T10:18:12;10.30;;;7.30;;
65853;SDS011;52627;48.838;2.402;2023-04-21T10:20:53;11.30;;;7.50;;
65853;SDS011;52627;48.838;2.402;2023-04-21T10:23:37;9.30;;;7.60;;
65853;SDS011;52627;48.838;2.402;2023-04-21T10:28:57;9.80;;;6.90;;
65853;SDS011;52627;48.838;2.402;2023-04-21T10:39:33;9.00;;;6.60;;
65853;SDS011;52627;48.838;2.402;2023-04-21T10:42:22;10.50;;;7.10;;
65853;SDS011;52627;48.838;2.402;2023-04-21T10:47:26;10.90;;;7.40;;
65853;SDS011;52627;48.838;2.402;2023-04-21T10:53:05;8.90;;;6.40;;
65853;SDS011;52627;48.838;2.402;2023-04-21T10:55:35;11.60;;;7.90;;
65853;SDS011;52627;48.838;2.402;2023-04-21T10:58:04;10.70;;;7.20;;
65853;SDS011;52627;48.838;2.402;2023-04-21T11:00:35;10.80;;;7.80;;
65853;SDS011;52627;48.838;2.402;2023-04-21T11:03:06;9.70;;;7.10;;
65853;SDS011;52627;48.838;2.402;2023-04-21T11:05:36;11.00;;;6.70;;
65853;SDS011;52627;48.838;2.402;2023-04-21T11:10:54;10.90;;;7.00;;
65853;SDS011;52627;48.838;2.402;2023-04-21T11:13:23;8.50;;;6.70;;
65853;SDS011;52627;48.838;2.402;2023-04-21T11:15:55;8.30;;;6.20;;
65853;SDS011;52627;48.838;2.402;2023-04-21T11:18:42;10.90;;;6.80;;
65853;SDS011;52627;48.838;2.402;2023-04-21T11:21:16;9.20;;;6.40;;
65853;SDS011;52627;48.838;2.402;2023-04-21T11:23:55;8.60;;;6.00;;
65853;SDS011;52627;48.838;2.402;2023-04-21T11:26:35;9.00;;;6.30;;
65853;SDS011;52627;48.838;2.402;2023-04-21T11:29:09;7.40;;;5.70;;
65853;SDS011;52627;48.838;2.402;2023-04-21T11:31:39;7.80;;;6.10;;
65853;SDS011;52627;48.838;2.402;2023-04-21T11:34:07;7.10;;;6.00;;
65853;SDS011;52627;48.838;2.402;2023-04-21T11:36:35;8.40;;;5.70;;
65853;SDS011;52627;48.838;2.402;2023-04-21T11:39:09;7.20;;;5.50;;
65853;SDS011;52627;48.838;2.402;2023-04-21T11:41:43;8.30;;;5.90;;
65853;SDS011;52627;48.838;2.402;2023-04-21T11:44:13;6.80;;;5.80;;
65853;SDS011;52627;48.838;2.402;2023-04-21T11:46:57;8.20;;;6.50;;
65853;SDS011;52627;48.838;2.402;2023-04-21T11:49:25;8.30;;;5.90;;
65853;SDS011;52627;48.838;2.402;2023-04-21T11:51:55;8.80;;;5.70;;
65853;SDS011;52627;48.838;2.402;2023-04-21T11:54:22;6.60;;;5.50;;
65853;SDS011;52627;48.838;2.402;2023-04-21T11:56:50;7.50;;;5.90;;
65853;SDS011;52627;48.838;2.402;2023-04-21T11:59:21;6.70;;;5.20;;
65853;SDS011;52627;48.838;2.402;2023-04-21T12:01:53;9.30;;;5.70;;
65853;SDS011;52627;48.838;2.402;2023-04-21T12:04:22;6.60;;;5.70;;
65853;SDS011;52627;48.838;2.402;2023-04-21T12:06:56;8.90;;;5.90;;
65853;SDS011;52627;48.838;2.402;2023-04-21T12:09:28;8.90;;;5.60;;
65853;SDS011;52627;48.838;2.402;2023-04-21T12:11:57;7.60;;;5.30;;
65853;SDS011;52627;48.838;2.402;2023-04-21T12:14:24;8.20;;;5.50;;
65853;SDS011;52627;48.838;2.402;2023-04-21T12:16:55;7.30;;;5.80;;
65853;SDS011;52627;48.838;2.402;2023-04-21T12:19:38;7.90;;;5.90;;
65853;SDS011;52627;48.838;2.402;2023-04-21T12:22:14;7.40;;;5.90;;
65853;SDS011;52627;48.838;2.402;2023-04-21T12:24:43;8.40;;;5.70;;
65853;SDS011;52627;48.838;2.402;2023-04-21T12:27:11;6.80;;;5.10;;
65853;SDS011;52627;48.838;2.402;2023-04-21T12:29:39;9.20;;;6.40;;
65853;SDS011;52627;48.838;2.402;2023-04-21T12:32:07;6.50;;;5.30;;
65853;SDS011;52627;48.838;2.402;2023-04-21T12:34:35;6.80;;;5.20;;
65853;SDS011;52627;48.838;2.402;2023-04-21T12:37:02;8.10;;;5.60;;
65853;SDS011;52627;48.838;2.402;2023-04-21T12:39:29;7.60;;;5.50;;
65853;SDS011;52627;48.838;2.402;2023-04-21T12:41:57;5.90;;;5.10;;
65853;SDS011;52627;48.838;2.402;2023-04-21T12:44:24;6.70;;;5.40;;
65853;SDS011;52627;48.838;2.402;2023-04-21T12:46:51;9.20;;;5.80;;
65853;SDS011;52627;48.838;2.402;2023-04-21T12:49:18;6.80;;;5.00;;
65853;SDS011;52627;48.838;2.402;2023-04-21T12:51:45;10.00;;;5.70;;
65853;SDS011;52627;48.838;2.402;2023-04-21T12:54:12;7.20;;;5.80;;
65853;SDS011;52627;48.838;2.402;2023-04-21T12:56:41;7.60;;;5.40;;
65853;SDS011;52627;48.838;2.402;2023-04-21T12:59:09;6.40;;;5.50;;
65853;SDS011;52627;48.838;2.402;2023-04-21T13:01:37;7.20;;;6.10;;
65853;SDS011;52627;48.838;2.402;2023-04-21T13:04:05;7.40;;;5.80;;
65853;SDS011;52627;48.838;2.402;2023-04-21T13:06:33;6.20;;;5.10;;
65853;SDS011;52627;48.838;2.402;2023-04-21T13:08:59;7.80;;;5.70;;
65853;SDS011;52627;48.838;2.402;2023-04-21T13:11:27;7.20;;;5.50;;
65853;SDS011;52627;48.838;2.402;2023-04-21T13:13:53;6.20;;;5.30;;
65853;SDS011;52627;48.838;2.402;2023-04-21T13:16:20;8.50;;;5.60;;
65853;SDS011;52627;48.838;2.402;2023-04-21T13:18:47;9.20;;;6.60;;
65853;SDS011;52627;48.838;2.402;2023-04-21T13:21:14;10.30;;;6.80;;
65853;SDS011;52627;48.838;2.402;2023-04-21T13:23:40;9.60;;;5.90;;
65853;SDS011;52627;48.838;2.402;2023-04-21T13:26:07;8.10;;;6.60;;
65853;SDS011;52627;48.838;2.402;2023-04-21T13:28:35;8.80;;;6.20;;
65853;SDS011;52627;48.838;2.402;2023-04-21T13:31:01;8.80;;;6.80;;
65853;SDS011;52627;48.838;2.402;2023-04-21T13:33:29;9.00;;;7.00;;
65853;SDS011;52627;48.838;2.402;2023-04-21T13:36:01;9.40;;;7.00;;
65853;SDS011;52627;48.838;2.402;2023-04-21T13:38:29;9.30;;;6.80;;
65853;SDS011;52627;48.838;2.402;2023-04-21T13:40:56;8.70;;;6.40;;
65853;SDS011;52627;48.838;2.402;2023-04-21T13:43:24;8.70;;;6.70;;
65853;SDS011;52627;48.838;2.402;2023-04-21T13:45:51;9.00;;;6.90;;
65853;SDS011;52627;48.838;2.402;2023-04-21T13:48:20;7.70;;;6.30;;
65853;SDS011;52627;48.838;2.402;2023-04-21T13:50:50;9.30;;;6.70;;
65853;SDS011;52627;48.838;2.402;2023-04-21T13:53:17;8.80;;;6.80;;
65853;SDS011;52627;48.838;2.402;2023-04-21T13:55:47;10.60;;;6.80;;
65853;SDS011;52627;48.838;2.402;2023-04-21T13:58:17;7.90;;;6.60;;
65853;SDS011;52627;48.838;2.402;2023-04-21T14:00:44;10.40;;;7.30;;
65853;SDS011;52627;48.838;2.402;2023-04-21T14:03:10;8.70;;;6.80;;
65853;SDS011;52627;48.838;2.402;2023-04-21T14:05:38;9.20;;;6.80;;
65853;SDS011;52627;48.838;2.402;2023-04-21T14:08:05;11.00;;;6.90;;
65853;SDS011;52627;48.838;2.402;2023-04-21T14:10:32;9.10;;;7.10;;
65853;SDS011;52627;48.838;2.402;2023-04-21T14:12:59;9.10;;;7.40;;
65853;SDS011;52627;48.838;2.402;2023-04-21T14:15:27;9.80;;;6.80;;
65853;SDS011;52627;48.838;2.402;2023-04-21T14:17:53;9.60;;;7.30;;
65853;SDS011;52627;48.838;2.402;2023-04-21T14:20:21;10.00;;;7.20;;
65853;SDS011;52627;48.838;2.402;2023-04-21T14:22:48;8.60;;;7.40;;
65853;SDS011;52627;48.838;2.402;2023-04-21T14:25:15;10.90;;;7.70;;
65853;SDS011;52627;48.838;2.402;2023-04-21T14:27:42;9.10;;;7.30;;
65853;SDS011;52627;48.838;2.402;2023-04-21T14:30:09;9.70;;;6.80;;
65853;SDS011;52627;48.838;2.402;2023-04-21T14:32:36;9.60;;;6.60;;
65853;SDS011;52627;48.838;2.402;2023-04-21T14:35:04;9.20;;;6.90;;
65853;SDS011;52627;48.838;2.402;2023-04-21T14:37:32;10.60;;;8.10;;
65853;SDS011;52627;48.838;2.402;2023-04-21T14:39:58;10.30;;;7.80;;
65853;SDS011;52627;48.838;2.402;2023-04-21T14:42:26;10.90;;;8.00;;
65853;SDS011;52627;48.838;2.402;2023-04-21T14:44:53;11.20;;;7.80;;
65853;SDS011;52627;48.838;2.402;2023-04-21T14:47:20;10.70;;;7.70;;
65853;SDS011;52627;48.838;2.402;2023-04-21T14:49:47;10.80;;;7.70;;
65853;SDS011;52627;48.838;2.402;2023-04-21T14:52:20;10.50;;;7.70;;
65853;SDS011;52627;48.838;2.402;2023-04-21T14:54:50;8.80;;;7.20;;
65853;SDS011;52627;48.838;2.402;2023-04-21T14:57:17;9.40;;;7.40;;
65853;SDS011;52627;48.838;2.402;2023-04-21T14:59:51;11.40;;;8.30;;